Time;durP1;ratioP1;P1;durP2;ratioP2;P2;SDS_P1;SDS_P2;PMS_P1;PMS_P2;Temp;Humidity;BMP_temperature;BMP_pressure;BME280_temperature;BME280_humidity;BME280_pressure;Samples;Min_cycle;Max_cycle;Signal;HPM_P1;HPM_P2
2023/01/04 00:00:35;;;;;;;14.88;9.68;;;;;;;;;;4992604;28;20459;-45
2023/01/04 00:03:00;;;;;;;12.32;10.13;;;;;;;;;;4997053;28;20044;-43
2023/01/04 00:05:25;;;;;;;12.25;9.80;;;;;;;;;;4993737;28;20427;-44
2023/01/04 00:07:51;;;;;;;13.13;10.57;;;;;;;;;;4992355;28;20043;-43
2023/01/04 00:10:16;;;;;;;16.33;10.65;;;;;;;;;;4997903;28;20034;-44
2023/01/04 00:12:41;;;;;;;13.38;10.18;;;;;;;;;;4991213;28;20376;-43
2023/01/04 00:15:07;;;;;;;14.75;9.30;;;;;;;;;;4988666;28;20049;-45
2023/01/04 00:17:33;;;;;;;12.73;9.90;;;;;;;;;;4993790;28;20050;-43
2023/01/04 00:19:58;;;;;;;15.90;10.07;;;;;;;;;;4996553;28;20459;-43
2023/01/04 00:22:24;;;;;;;12.18;9.88;;;;;;;;;;4991497;28;20038;-44
2023/01/04 00:24:49;;;;;;;15.13;10.10;;;;;;;;;;4990923;28;20034;-43
2023/01/04 00:27:14;;;;;;;16.10;10.75;;;;;;;;;;4995359;28;20042;-44
2023/01/04 00:29:40;;;;;;;16.38;11.15;;;;;;;;;;4993575;28;20033;-43
2023/01/04 00:32:05;;;;;;;14.23;10.77;;;;;;;;;;4992911;28;20049;-44
2023/01/04 00:34:31;;;;;;;12.50;10.10;;;;;;;;;;4990502;28;20372;-43
2023/01/04 00:36:56;;;;;;;12.93;9.90;;;;;;;;;;4994953;28;20696;-44
2023/01/04 00:39:21;;;;;;;13.38;10.38;;;;;;;;;;4998217;28;20069;-43
2023/01/04 00:41:48;;;;;;;12.00;10.20;;;;;;;;;;4993920;28;20034;-46
2023/01/04 00:44:14;;;;;;;15.98;10.48;;;;;;;;;;4989648;28;20113;-46
2023/01/04 00:46:41;;;;;;;12.68;10.13;;;;;;;;;;4997852;28;20462;-43
2023/01/04 00:49:07;;;;;;;14.07;10.13;;;;;;;;;;4996649;28;20026;-46
2023/01/04 00:51:35;;;;;;;15.45;9.82;;;;;;;;;;4997294;28;20042;-44
2023/01/04 00:54:02;;;;;;;12.93;9.55;;;;;;;;;;5000379;28;20037;-47
2023/01/04 00:56:29;;;;;;;13.18;9.13;;;;;;;;;;4997062;28;20664;-44
2023/01/04 00:58:56;;;;;;;10.27;8.60;;;;;;;;;;4995744;28;20084;-43
2023/01/04 01:01:23;;;;;;;13.43;9.45;;;;;;;;;;4990330;28;20053;-44
2023/01/04 01:03:54;;;;;;;14.10;9.68;;;;;;;;;;4994677;28;20105;-44
2023/01/04 01:06:21;;;;;;;11.85;9.50;;;;;;;;;;4995761;28;20041;-44
2023/01/04 01:08:47;;;;;;;13.48;9.50;;;;;;;;;;4999688;28;20039;-49
2023/01/04 01:11:12;;;;;;;12.68;9.82;;;;;;;;;;4995432;28;20030;-43
2023/01/04 01:13:38;;;;;;;12.50;9.70;;;;;;;;;;4993075;28;20050;-45
2023/01/04 01:16:09;;;;;;;11.60;9.63;;;;;;;;;;4994197;28;20069;-46
2023/01/04 01:18:36;;;;;;;12.38;9.68;;;;;;;;;;4994360;28;20031;-44
2023/01/04 01:21:06;;;;;;;15.30;9.48;;;;;;;;;;5000074;28;20101;-44
2023/01/04 01:23:32;;;;;;;15.10;9.48;;;;;;;;;;4994248;28;20050;-43
2023/01/04 01:26:02;;;;;;;11.60;9.68;;;;;;;;;;4998951;28;20044;-43
2023/01/04 01:28:27;;;;;;;13.35;10.23;;;;;;;;;;4996030;28;20078;-43
2023/01/04 01:30:53;;;;;;;14.00;10.88;;;;;;;;;;4992150;28;20061;-43
2023/01/04 01:33:19;;;;;;;16.98;10.20;;;;;;;;;;4997775;28;20616;-43
2023/01/04 01:35:44;;;;;;;13.05;10.18;;;;;;;;;;4995004;28;20057;-44
2023/01/04 01:38:09;;;;;;;13.35;10.40;;;;;;;;;;4996911;28;20066;-43
2023/01/04 01:40:40;;;;;;;11.48;9.40;;;;;;;;;;5000350;28;20034;-42
2023/01/04 01:43:17;;;;;;;13.95;10.13;;;;;;;;;;4991912;28;20122;-44
2023/01/04 01:45:45;;;;;;;12.18;9.60;;;;;;;;;;4993719;28;20089;-44
2023/01/04 01:48:15;;;;;;;13.45;10.15;;;;;;;;;;4993902;28;20133;-44
2023/01/04 01:50:49;;;;;;;15.45;10.77;;;;;;;;;;4998111;28;20089;-43
2023/01/04 01:53:15;;;;;;;12.00;9.95;;;;;;;;;;4994104;28;20488;-43
2023/01/04 01:55:43;;;;;;;13.27;10.38;;;;;;;;;;4993984;28;20030;-44
2023/01/04 01:58:15;;;;;;;16.40;10.10;;;;;;;;;;4991155;28;20041;-44
2023/01/04 02:00:40;;;;;;;14.68;9.93;;;;;;;;;;4993350;28;20510;-42
2023/01/04 02:03:15;;;;;;;11.63;9.32;;;;;;;;;;4999378;28;20084;-46
2023/01/04 02:05:41;;;;;;;13.18;9.77;;;;;;;;;;4996398;28;20483;-43
2023/01/04 02:08:07;;;;;;;14.23;9.80;;;;;;;;;;4992825;28;20034;-45
2023/01/04 02:10:33;;;;;;;10.80;9.15;;;;;;;;;;4999033;28;20061;-44
2023/01/04 02:13:03;;;;;;;11.68;8.88;;;;;;;;;;4990430;28;20069;-42
2023/01/04 02:15:39;;;;;;;14.90;9.63;;;;;;;;;;4997165;28;20026;-43
2023/01/04 02:18:14;;;;;;;12.27;9.10;;;;;;;;;;4995994;28;20502;-43
2023/01/04 02:20:43;;;;;;;12.38;10.32;;;;;;;;;;4997021;28;20109;-43
2023/01/04 02:23:32;;;;;;;11.45;9.02;;;;;;;;;;4996314;28;20129;-47
2023/01/04 02:26:42;;;;;;;12.98;8.88;;;;;;;;;;4998490;28;20442;-44
2023/01/04 02:29:29;;;;;;;11.90;8.70;;;;;;;;;;4993133;28;20622;-43
2023/01/04 02:32:15;;;;;;;10.60;8.40;;;;;;;;;;4997058;28;20100;-43
2023/01/04 02:35:03;;;;;;;9.50;8.20;;;;;;;;;;4994676;28;20038;-43
2023/01/04 02:37:35;;;;;;;12.70;8.15;;;;;;;;;;4990720;28;20050;-44
2023/01/04 02:40:03;;;;;;;13.33;9.00;;;;;;;;;;4990315;28;20019;-46
2023/01/04 02:45:34;;;;;;;10.10;8.75;;;;;;;;;;4988691;28;20036;-45
2023/01/04 02:50:56;;;;;;;10.27;8.10;;;;;;;;;;4994547;28;20041;-46
2023/01/04 02:53:27;;;;;;;9.73;8.30;;;;;;;;;;4993252;28;20034;-42
2023/01/04 02:56:37;;;;;;;9.90;8.63;;;;;;;;;;4988841;28;20023;-47
2023/01/04 02:59:02;;;;;;;11.48;8.65;;;;;;;;;;4992431;28;20120;-44
2023/01/04 03:07:51;;;;;;;11.50;8.63;;;;;;;;;;4996662;28;20065;-43
2023/01/04 03:10:34;;;;;;;10.25;8.52;;;;;;;;;;4997249;28;20026;-45
2023/01/04 03:13:25;;;;;;;10.75;8.20;;;;;;;;;;4988857;28;20049;-43
2023/01/04 03:15:54;;;;;;;11.43;8.82;;;;;;;;;;4990659;28;20109;-50
2023/01/04 03:18:26;;;;;;;9.93;8.88;;;;;;;;;;4993676;28;20518;-44
2023/01/04 03:20:54;;;;;;;10.95;7.95;;;;;;;;;;4996311;28;20034;-48
2023/01/04 03:37:48;;;;;;;12.20;8.68;;;;;;;;;;4991600;28;20395;-49
2023/01/04 03:49:43;;;;;;;10.88;8.55;;;;;;;;;;4992747;28;20057;-44
2023/01/04 03:52:11;;;;;;;9.90;7.82;;;;;;;;;;4991009;28;20447;-43
2023/01/04 03:54:40;;;;;;;12.80;8.00;;;;;;;;;;4991081;28;20125;-44
2023/01/04 03:57:08;;;;;;;12.13;8.05;;;;;;;;;;4989786;28;20121;-44
2023/01/04 03:59:41;;;;;;;12.20;8.20;;;;;;;;;;4997831;28;20018;-43
2023/01/04 04:02:12;;;;;;;8.75;7.72;;;;;;;;;;4991924;28;20038;-45
2023/01/04 04:10:07;;;;;;;9.65;8.45;;;;;;;;;;4996281;28;20499;-44
2023/01/04 04:12:32;;;;;;;11.82;8.30;;;;;;;;;;4999136;28;20069;-43
2023/01/04 04:14:57;;;;;;;11.20;9.20;;;;;;;;;;4993949;28;20482;-43
2023/01/04 04:17:23;;;;;;;10.90;8.05;;;;;;;;;;4995190;28;20046;-43
2023/01/04 04:19:48;;;;;;;8.52;7.60;;;;;;;;;;4995732;28;20876;-45
2023/01/04 04:22:13;;;;;;;12.32;8.20;;;;;;;;;;4994053;28;20048;-42
2023/01/04 04:24:39;;;;;;;11.73;7.60;;;;;;;;;;4994787;28;20030;-43
2023/01/04 04:27:04;;;;;;;8.45;7.57;;;;;;;;;;4998031;28;20054;-42
2023/01/04 04:29:29;;;;;;;10.25;7.40;;;;;;;;;;4996236;28;20034;-43
2023/01/04 04:31:55;;;;;;;11.30;7.65;;;;;;;;;;4996964;28;20087;-43
2023/01/04 04:34:20;;;;;;;9.07;7.85;;;;;;;;;;4999301;28;20026;-42
2023/01/04 04:36:46;;;;;;;8.43;7.40;;;;;;;;;;4998258;28;20498;-44
2023/01/04 04:39:11;;;;;;;7.82;6.95;;;;;;;;;;4996946;28;20014;-45
2023/01/04 04:41:37;;;;;;;7.80;7.07;;;;;;;;;;4996896;28;20096;-46
2023/01/04 04:44:17;;;;;;;9.95;7.30;;;;;;;;;;4993144;28;20026;-47
2023/01/04 04:46:44;;;;;;;11.90;6.85;;;;;;;;;;4997470;28;20117;-44
2023/01/04 04:49:10;;;;;;;9.13;7.00;;;;;;;;;;4995210;28;20034;-42
2023/01/04 04:51:36;;;;;;;10.18;7.80;;;;;;;;;;4995269;28;20125;-43
2023/01/04 04:54:02;;;;;;;9.15;7.38;;;;;;;;;;4990929;28;20060;-46
2023/01/04 04:56:28;;;;;;;9.52;7.22;;;;;;;;;;4995032;28;20466;-45
2023/01/04 04:58:53;;;;;;;13.00;7.47;;;;;;;;;;4995506;28;20053;-44
2023/01/04 05:01:18;;;;;;;8.82;7.18;;;;;;;;;;4994746;28;20041;-47
2023/01/04 05:03:44;;;;;;;10.38;7.90;;;;;;;;;;4996285;28;20046;-43
2023/01/04 05:06:09;;;;;;;9.07;8.07;;;;;;;;;;4996895;28;20030;-43
2023/01/04 05:08:35;;;;;;;8.02;6.85;;;;;;;;;;5000012;28;20053;-41
2023/01/04 05:11:07;;;;;;;10.20;7.35;;;;;;;;;;4991770;28;20036;-43
2023/01/04 05:13:33;;;;;;;7.45;6.75;;;;;;;;;;4995245;28;20038;-43
2023/01/04 05:15:59;;;;;;;9.93;7.53;;;;;;;;;;5001991;28;20036;-43
2023/01/04 05:18:24;;;;;;;8.63;7.07;;;;;;;;;;4995402;28;20041;-43
2023/01/04 05:20:50;;;;;;;8.70;7.15;;;;;;;;;;4997891;28;20169;-45
2023/01/04 05:23:17;;;;;;;9.60;6.85;;;;;;;;;;4995676;28;20033;-43
2023/01/04 05:25:42;;;;;;;8.95;7.35;;;;;;;;;;4997038;28;20026;-43
2023/01/04 05:28:08;;;;;;;8.13;6.70;;;;;;;;;;4991483;28;20449;-43
2023/01/04 05:30:49;;;;;;;11.32;7.13;;;;;;;;;;4997730;28;21556;-45
2023/01/04 05:33:26;;;;;;;8.27;6.57;;;;;;;;;;4997728;28;20077;-42
2023/01/04 05:35:53;;;;;;;9.32;6.97;;;;;;;;;;4994387;28;20030;-43
2023/01/04 05:38:19;;;;;;;13.45;7.28;;;;;;;;;;4996885;28;20507;-43
2023/01/04 05:40:45;;;;;;;8.82;6.80;;;;;;;;;;4993609;28;20022;-44
2023/01/04 05:43:12;;;;;;;9.65;6.55;;;;;;;;;;4991743;28;20152;-44
2023/01/04 05:45:38;;;;;;;6.85;6.10;;;;;;;;;;4991471;28;20383;-44
2023/01/04 05:48:04;;;;;;;7.00;6.25;;;;;;;;;;4995295;28;20042;-43
2023/01/04 05:50:29;;;;;;;7.95;6.45;;;;;;;;;;4993614;28;20080;-43
2023/01/04 05:52:55;;;;;;;7.38;6.57;;;;;;;;;;4990963;28;20093;-44
2023/01/04 05:55:20;;;;;;;10.20;6.78;;;;;;;;;;4992801;28;20034;-45
2023/01/04 05:57:46;;;;;;;9.02;6.32;;;;;;;;;;4994790;28;20038;-45
2023/01/04 06:00:12;;;;;;;8.63;7.05;;;;;;;;;;4994642;28;20043;-43
2023/01/04 06:02:38;;;;;;;10.85;7.30;;;;;;;;;;4992090;28;20557;-43
2023/01/04 06:05:04;;;;;;;11.07;7.18;;;;;;;;;;4989102;28;20034;-45
2023/01/04 06:07:30;;;;;;;10.73;7.18;;;;;;;;;;4993021;28;20122;-44
2023/01/04 06:09:56;;;;;;;11.55;7.30;;;;;;;;;;4990886;28;20731;-41
2023/01/04 06:12:22;;;;;;;11.90;7.30;;;;;;;;;;4989270;28;20046;-43
2023/01/04 06:14:47;;;;;;;8.55;6.57;;;;;;;;;;4986840;28;20029;-43
2023/01/04 06:17:13;;;;;;;9.60;6.57;;;;;;;;;;4989637;28;20045;-43
2023/01/04 06:19:39;;;;;;;9.57;7.38;;;;;;;;;;4986725;28;20085;-42
2023/01/04 06:22:04;;;;;;;9.90;6.93;;;;;;;;;;4987754;28;20066;-43
2023/01/04 06:24:30;;;;;;;12.35;7.15;;;;;;;;;;4988772;28;20058;-43
2023/01/04 06:26:55;;;;;;;8.38;6.75;;;;;;;;;;4988012;28;20034;-43
2023/01/04 06:29:20;;;;;;;7.25;6.55;;;;;;;;;;4985908;28;20446;-47
2023/01/04 06:31:46;;;;;;;9.15;6.82;;;;;;;;;;4994322;28;20034;-43
2023/01/04 06:34:13;;;;;;;9.23;7.35;;;;;;;;;;4992767;28;20037;-43
2023/01/04 06:36:38;;;;;;;8.02;7.00;;;;;;;;;;4993990;28;20026;-47
2023/01/04 06:39:05;;;;;;;9.65;7.57;;;;;;;;;;4986912;28;20391;-44
2023/01/04 06:41:30;;;;;;;14.32;9.40;;;;;;;;;;4986895;28;20046;-42
2023/01/04 06:43:55;;;;;;;10.93;9.80;;;;;;;;;;4983045;28;20059;-44
2023/01/04 06:46:21;;;;;;;11.15;8.65;;;;;;;;;;4984956;28;20026;-43
2023/01/04 06:48:46;;;;;;;8.50;7.60;;;;;;;;;;4982181;28;20105;-43
2023/01/04 06:51:12;;;;;;;9.43;7.88;;;;;;;;;;4984817;28;20030;-43
2023/01/04 06:53:37;;;;;;;13.70;7.80;;;;;;;;;;4986106;28;20442;-45
2023/01/04 06:56:03;;;;;;;9.23;7.90;;;;;;;;;;4986598;28;20032;-43
2023/01/04 06:58:28;;;;;;;10.05;7.53;;;;;;;;;;4987027;28;20426;-45
2023/01/04 07:00:54;;;;;;;8.32;6.18;;;;;;;;;;4989564;28;20132;-45
2023/01/04 07:03:19;;;;;;;17.00;6.43;;;;;;;;;;4988023;28;21921;-43
2023/01/04 07:05:45;;;;;;;7.03;6.32;;;;;;;;;;4995484;28;20068;-45
2023/01/04 07:08:12;;;;;;;6.90;5.93;;;;;;;;;;4990290;28;20532;-45
2023/01/04 07:10:37;;;;;;;7.28;6.15;;;;;;;;;;4993110;28;20041;-44
2023/01/04 07:13:03;;;;;;;9.98;6.25;;;;;;;;;;4984326;28;20042;-43
2023/01/04 07:15:29;;;;;;;10.98;6.53;;;;;;;;;;4982036;28;20049;-43
2023/01/04 07:17:54;;;;;;;10.80;7.43;;;;;;;;;;4981165;28;20043;-43
2023/01/04 07:20:19;;;;;;;11.57;6.75;;;;;;;;;;4994681;28;20035;-44
2023/01/04 07:22:45;;;;;;;9.95;7.72;;;;;;;;;;4989287;28;20050;-42
2023/01/04 07:25:10;;;;;;;13.77;7.30;;;;;;;;;;4994658;28;20025;-43
2023/01/04 07:27:36;;;;;;;10.80;7.93;;;;;;;;;;4992032;28;20121;-44
2023/01/04 07:30:01;;;;;;;10.18;7.05;;;;;;;;;;4995240;28;20038;-42
2023/01/04 07:32:27;;;;;;;10.55;7.15;;;;;;;;;;4995113;28;20046;-43
2023/01/04 07:34:52;;;;;;;9.10;7.80;;;;;;;;;;4992881;28;20034;-43
2023/01/04 07:37:17;;;;;;;9.23;7.35;;;;;;;;;;4991986;28;20487;-43
2023/01/04 07:39:43;;;;;;;8.35;6.90;;;;;;;;;;4994259;28;20034;-45
2023/01/04 07:42:10;;;;;;;7.60;6.80;;;;;;;;;;4992475;28;20026;-43
2023/01/04 07:44:35;;;;;;;8.65;6.60;;;;;;;;;;4991758;28;20029;-42
2023/01/04 07:47:01;;;;;;;11.80;7.00;;;;;;;;;;4989480;28;20522;-43
2023/01/04 07:49:26;;;;;;;7.85;6.32;;;;;;;;;;4991350;28;20033;-45
2023/01/04 07:51:51;;;;;;;11.27;7.32;;;;;;;;;;4995401;28;20058;-43
2023/01/04 07:54:18;;;;;;;7.68;6.65;;;;;;;;;;4997126;28;20557;-42
2023/01/04 07:56:44;;;;;;;14.98;7.50;;;;;;;;;;4989671;28;21345;-43
2023/01/04 07:59:11;;;;;;;8.65;6.32;;;;;;;;;;4990646;28;20022;-44
2023/01/04 08:01:37;;;;;;;8.88;6.85;;;;;;;;;;4995475;28;20039;-42
2023/01/04 08:04:04;;;;;;;7.03;6.20;;;;;;;;;;4992119;28;20026;-43
2023/01/04 08:06:31;;;;;;;6.38;5.78;;;;;;;;;;4993810;28;20030;-42
2023/01/04 08:08:57;;;;;;;7.70;6.32;;;;;;;;;;4990798;28;20052;-44
2023/01/04 08:11:23;;;;;;;6.22;5.60;;;;;;;;;;4995710;28;20026;-43
2023/01/04 08:13:49;;;;;;;7.40;5.97;;;;;;;;;;4996855;28;20030;-49
2023/01/04 08:16:20;;;;;;;7.05;6.35;;;;;;;;;;4989119;28;20037;-43
2023/01/04 08:18:46;;;;;;;7.63;6.77;;;;;;;;;;4989389;28;20034;-43
2023/01/04 08:21:11;;;;;;;8.13;7.20;;;;;;;;;;4993093;28;20470;-43
2023/01/04 08:23:37;;;;;;;9.85;6.68;;;;;;;;;;4991102;28;20042;-43
2023/01/04 08:26:11;;;;;;;8.38;6.35;;;;;;;;;;4992882;28;20023;-43
2023/01/04 08:28:37;;;;;;;8.93;5.97;;;;;;;;;;4990889;28;20049;-46
2023/01/04 08:31:09;;;;;;;9.70;6.25;;;;;;;;;;4996030;28;20437;-45
2023/01/04 08:33:36;;;;;;;12.10;6.30;;;;;;;;;;4990551;28;20125;-43
2023/01/04 08:36:17;;;;;;;6.90;6.22;;;;;;;;;;4988691;28;20480;-44
2023/01/04 08:38:43;;;;;;;9.63;6.70;;;;;;;;;;4993912;28;20041;-43
2023/01/04 08:41:08;;;;;;;10.07;7.38;;;;;;;;;;4989937;28;20030;-45
2023/01/04 08:43:34;;;;;;;10.23;6.93;;;;;;;;;;4996088;28;20035;-46
2023/01/04 08:46:02;;;;;;;13.25;8.70;;;;;;;;;;4994986;28;20022;-46
2023/01/04 08:48:28;;;;;;;13.68;8.70;;;;;;;;;;4997472;28;20043;-47
2023/01/04 08:50:54;;;;;;;12.18;9.13;;;;;;;;;;4987355;28;20030;-43
2023/01/04 08:53:19;;;;;;;12.82;7.80;;;;;;;;;;4992398;28;20038;-42
2023/01/04 08:55:48;;;;;;;13.73;7.70;;;;;;;;;;4995909;28;20097;-45
2023/01/04 08:58:14;;;;;;;14.48;7.72;;;;;;;;;;4998273;28;20092;-43
2023/01/04 09:00:39;;;;;;;10.35;8.00;;;;;;;;;;5001184;28;20398;-44
2023/01/04 09:03:04;;;;;;;11.30;8.00;;;;;;;;;;4995576;28;20038;-43
2023/01/04 09:05:31;;;;;;;10.45;7.18;;;;;;;;;;4997372;28;20451;-42
2023/01/04 09:07:58;;;;;;;12.00;7.60;;;;;;;;;;4995790;28;20040;-44
2023/01/04 09:10:24;;;;;;;12.85;8.13;;;;;;;;;;4998655;28;20065;-43
2023/01/04 09:12:49;;;;;;;10.70;7.93;;;;;;;;;;4995462;28;20073;-42
2023/01/04 09:15:16;;;;;;;9.23;7.65;;;;;;;;;;4997446;28;20081;-43
2023/01/04 09:17:41;;;;;;;7.75;6.55;;;;;;;;;;4995934;28;20042;-42
2023/01/04 09:20:07;;;;;;;13.05;6.72;;;;;;;;;;4997405;28;20026;-42
2023/01/04 09:22:32;;;;;;;8.05;6.57;;;;;;;;;;4994469;28;20508;-44
2023/01/04 09:24:58;;;;;;;11.68;7.53;;;;;;;;;;4996141;28;20030;-42
2023/01/04 09:27:23;;;;;;;11.50;8.15;;;;;;;;;;4993066;28;20034;-43
2023/01/04 09:29:49;;;;;;;13.02;8.90;;;;;;;;;;5000546;28;20020;-47
2023/01/04 09:32:14;;;;;;;15.20;10.50;;;;;;;;;;4996772;28;20038;-47
2023/01/04 09:34:40;;;;;;;10.82;8.40;;;;;;;;;;4998733;28;20120;-43
2023/01/04 09:37:05;;;;;;;12.55;8.50;;;;;;;;;;4994767;28;20093;-44
2023/01/04 09:39:30;;;;;;;11.10;8.38;;;;;;;;;;4996581;28;20089;-43
2023/01/04 09:41:58;;;;;;;16.00;9.10;;;;;;;;;;4994293;28;20550;-42
2023/01/04 09:45:08;;;;;;;13.73;9.82;;;;;;;;;;4997300;28;20030;-42
2023/01/04 09:47:51;;;;;;;10.88;8.75;;;;;;;;;;4974226;28;20047;-43
2023/01/04 09:50:24;;;;;;;15.40;9.68;;;;;;;;;;4976310;28;20062;-43
2023/01/04 09:53:06;;;;;;;12.93;9.13;;;;;;;;;;4971870;28;20129;-44
2023/01/04 09:55:37;;;;;;;12.73;9.88;;;;;;;;;;4973539;28;20503;-44
2023/01/04 09:58:19;;;;;;;16.63;10.20;;;;;;;;;;4972960;28;20109;-45
2023/01/04 10:00:58;;;;;;;;;;;;;;;;;;4974343;28;20034;-42
2023/01/04 10:03:29;;;;;;;13.63;9.50;;;;;;;;;;4974112;28;19922;-45
2023/01/04 10:05:56;;;;;;;13.13;9.87;;;;;;;;;;4976161;28;20573;-43
2023/01/04 10:08:22;;;;;;;17.50;10.07;;;;;;;;;;4971509;28;20453;-43
2023/01/04 10:11:24;;;;;;;13.23;10.45;;;;;;;;;;4975945;28;20591;-45
2023/01/04 10:14:10;;;;;;;17.05;12.38;;;;;;;;;;4952697;28;20047;-44
2023/01/04 10:16:53;;;;;;;18.80;11.55;;;;;;;;;;4950207;28;20046;-42
2023/01/04 10:19:47;;;;;;;15.73;11.05;;;;;;;;;;4951635;28;20146;-42
2023/01/04 10:22:27;;;;;;;20.27;12.00;;;;;;;;;;4952862;28;20527;-42
2023/01/04 10:25:01;;;;;;;22.38;12.40;;;;;;;;;;4970920;28;20047;-43
2023/01/04 10:27:42;;;;;;;16.63;12.20;;;;;;;;;;4989094;28;20063;-43
2023/01/04 10:30:33;;;;;;;17.02;11.75;;;;;;;;;;4996659;28;20092;-42
2023/01/04 10:33:31;;;;;;;15.55;12.18;;;;;;;;;;4998160;28;20042;-46
2023/01/04 10:35:57;;;;;;;19.50;12.15;;;;;;;;;;4991817;28;20543;-43
2023/01/04 10:38:26;;;;;;;22.85;12.90;;;;;;;;;;4996449;28;20034;-45
2023/01/04 10:40:54;;;;;;;16.58;12.75;;;;;;;;;;4994615;28;20508;-44
2023/01/04 10:43:53;;;;;;;25.42;12.75;;;;;;;;;;4994585;28;20074;-43
2023/01/04 10:46:41;;;;;;;21.35;12.80;;;;;;;;;;4989645;28;20088;-43
2023/01/04 10:49:14;;;;;;;27.58;13.10;;;;;;;;;;4991263;28;20410;-43
2023/01/04 10:51:48;;;;;;;30.48;11.90;;;;;;;;;;4992984;28;20049;-44
2023/01/04 10:54:39;;;;;;;17.20;10.82;;;;;;;;;;4996082;28;20044;-43
2023/01/04 10:57:24;;;;;;;16.33;12.07;;;;;;;;;;4997263;28;20046;-44
2023/01/04 11:00:05;;;;;;;17.02;11.25;;;;;;;;;;4988896;28;20030;-44
2023/01/04 11:02:55;;;;;;;20.10;12.43;;;;;;;;;;4990629;28;20533;-43
2023/01/04 11:05:33;;;;;;;19.70;12.30;;;;;;;;;;4992389;28;20049;-45
2023/01/04 11:08:11;;;;;;;21.75;12.10;;;;;;;;;;5011266;28;20114;-46
2023/01/04 11:10:55;;;;;;;18.92;12.10;;;;;;;;;;4994713;28;20049;-43
2023/01/04 11:13:22;;;;;;;19.15;12.05;;;;;;;;;;4993271;28;20050;-43
2023/01/04 11:15:48;;;;;;;16.92;12.20;;;;;;;;;;4993095;28;20039;-43
2023/01/04 11:18:15;;;;;;;28.90;12.18;;;;;;;;;;4990965;28;20156;-43
2023/01/04 11:20:40;;;;;;;18.98;11.85;;;;;;;;;;4995689;28;20156;-44
2023/01/04 11:23:13;;;;;;;23.38;11.75;;;;;;;;;;4992554;28;20109;-45
2023/01/04 11:25:45;;;;;;;18.98;11.38;;;;;;;;;;4993296;28;20030;-43
2023/01/04 11:28:28;;;;;;;19.02;11.38;;;;;;;;;;4994199;28;20041;-43
2023/01/04 11:31:10;;;;;;;19.15;11.70;;;;;;;;;;4994837;28;20065;-44
2023/01/04 11:33:57;;;;;;;20.25;11.43;;;;;;;;;;4992507;28;20053;-43
2023/01/04 11:36:38;;;;;;;18.88;11.48;;;;;;;;;;4990910;28;20041;-44
2023/01/04 11:39:25;;;;;;;16.60;11.45;;;;;;;;;;4995726;28;20141;-43
2023/01/04 11:41:59;;;;;;;21.90;11.25;;;;;;;;;;4994911;28;20054;-44
2023/01/04 11:44:25;;;;;;;14.95;11.43;;;;;;;;;;4995900;28;20028;-45
2023/01/04 11:47:16;;;;;;;19.52;10.57;;;;;;;;;;4992711;28;20211;-51
2023/01/04 11:49:41;;;;;;;16.10;10.98;;;;;;;;;;4994044;28;20030;-47
2023/01/04 11:52:31;;;;;;;12.43;10.60;;;;;;;;;;4989952;28;20041;-46
2023/01/04 11:55:14;;;;;;;17.27;11.13;;;;;;;;;;4992958;28;20378;-47
2023/01/04 11:57:40;;;;;;;16.67;11.10;;;;;;;;;;4993695;28;20049;-44
2023/01/04 12:00:08;;;;;;;16.85;11.52;;;;;;;;;;4993379;28;20046;-43
2023/01/04 12:02:33;;;;;;;20.00;11.45;;;;;;;;;;4994924;28;20042;-45
2023/01/04 12:04:59;;;;;;;15.50;11.95;;;;;;;;;;4990430;28;20030;-43
2023/01/04 12:07:34;;;;;;;18.50;11.50;;;;;;;;;;4993552;28;20388;-43
2023/01/04 12:10:12;;;;;;;22.60;12.20;;;;;;;;;;4992956;28;20029;-43
2023/01/04 12:12:38;;;;;;;17.42;11.80;;;;;;;;;;4993915;28;20038;-44
2023/01/04 12:15:09;;;;;;;16.48;10.77;;;;;;;;;;4992800;28;20026;-44
2023/01/04 12:17:47;;;;;;;15.85;11.95;;;;;;;;;;4990999;28;20042;-43
2023/01/04 12:20:15;;;;;;;22.75;13.40;;;;;;;;;;4991286;28;20026;-43
2023/01/04 12:22:40;;;;;;;18.38;12.30;;;;;;;;;;4995066;28;20048;-45
2023/01/04 12:25:29;;;;;;;16.98;12.73;;;;;;;;;;4992643;28;20034;-44
2023/01/04 12:27:54;;;;;;;28.98;15.05;;;;;;;;;;4994846;28;20034;-43
2023/01/04 12:30:35;;;;;;;17.00;12.57;;;;;;;;;;4993074;28;20073;-45
2023/01/04 12:33:29;;;;;;;19.25;12.23;;;;;;;;;;4996856;28;20052;-44
2023/01/04 12:36:06;;;;;;;18.20;11.63;;;;;;;;;;4994605;28;20045;-43
2023/01/04 12:38:50;;;;;;;16.55;11.25;;;;;;;;;;4998811;28;20049;-44
2023/01/04 12:41:19;;;;;;;18.02;11.20;;;;;;;;;;4991128;28;20622;-43
2023/01/04 12:43:48;;;;;;;15.52;11.70;;;;;;;;;;4994698;28;20046;-43
2023/01/04 12:49:25;;;;;;;16.92;11.52;;;;;;;;;;4995274;28;20048;-43
2023/01/04 12:52:09;;;;;;;13.60;10.90;;;;;;;;;;4997028;28;20082;-43
2023/01/04 12:54:43;;;;;;;15.90;10.93;;;;;;;;;;4998363;28;20034;-47
2023/01/04 12:57:17;;;;;;;13.57;10.18;;;;;;;;;;4997626;28;20189;-43
2023/01/04 12:59:56;;;;;;;12.65;10.13;;;;;;;;;;4996730;28;20029;-43
2023/01/04 13:02:24;;;;;;;17.00;10.73;;;;;;;;;;4990724;28;20050;-43
2023/01/04 13:04:52;;;;;;;18.13;10.77;;;;;;;;;;4998835;28;20026;-45
2023/01/04 13:07:28;;;;;;;16.25;11.10;;;;;;;;;;4998761;28;20394;-44
2023/01/04 13:09:59;;;;;;;15.85;10.18;;;;;;;;;;4996732;28;20077;-45
2023/01/04 13:12:50;;;;;;;17.08;10.73;;;;;;;;;;4992517;28;20137;-43
2023/01/04 13:15:24;;;;;;;11.20;7.38;;;;;;;;;;4995930;28;20116;-43
2023/01/04 13:17:51;;;;;;;5.72;4.40;;;;;;;;;;4992521;28;20042;-44
2023/01/04 13:20:24;;;;;;;5.35;3.80;;;;;;;;;;4998759;28;20041;-45
2023/01/04 13:22:55;;;;;;;5.65;3.35;;;;;;;;;;4997307;28;20050;-43
2023/01/04 13:25:22;;;;;;;7.78;3.90;;;;;;;;;;4999066;28;20779;-43
2023/01/04 13:28:00;;;;;;;7.85;4.25;;;;;;;;;;4999163;28;20050;-43
2023/01/04 13:30:29;;;;;;;5.85;3.50;;;;;;;;;;4994173;28;20026;-44
2023/01/04 13:32:55;;;;;;;6.25;3.72;;;;;;;;;;4993659;28;20556;-44
2023/01/04 13:35:20;;;;;;;4.10;3.38;;;;;;;;;;4993219;28;20031;-45
2023/01/04 13:37:49;;;;;;;6.10;3.70;;;;;;;;;;5000800;28;20030;-44
2023/01/04 13:40:18;;;;;;;6.35;3.63;;;;;;;;;;4997178;28;20101;-43
2023/01/04 13:42:47;;;;;;;6.28;3.60;;;;;;;;;;4995354;28;20042;-44
2023/01/04 13:45:27;;;;;;;4.25;3.70;;;;;;;;;;4995089;28;20030;-43
2023/01/04 13:47:58;;;;;;;9.98;3.20;;;;;;;;;;4998308;28;20049;-43
2023/01/04 13:50:27;;;;;;;6.20;3.20;;;;;;;;;;4992051;28;20035;-44
2023/01/04 13:52:53;;;;;;;7.30;3.78;;;;;;;;;;4993309;28;20072;-43
2023/01/04 13:55:29;;;;;;;5.93;3.65;;;;;;;;;;4995920;28;20049;-46
2023/01/04 13:57:59;;;;;;;7.25;2.75;;;;;;;;;;4994569;28;20061;-44
2023/01/04 14:00:30;;;;;;;5.13;4.15;;;;;;;;;;4995729;28;20042;-42
2023/01/04 14:03:11;;;;;;;3.97;2.80;;;;;;;;;;4996669;28;20117;-44
2023/01/04 14:05:42;;;;;;;6.20;3.10;;;;;;;;;;4997831;28;20022;-44
2023/01/04 14:08:10;;;;;;;7.30;4.60;;;;;;;;;;4990910;28;20049;-43
2023/01/04 14:10:36;;;;;;;4.25;3.85;;;;;;;;;;4996166;28;20065;-43
2023/01/04 14:13:03;;;;;;;3.60;3.30;;;;;;;;;;4996838;28;20129;-45
2023/01/04 14:15:32;;;;;;;5.85;3.47;;;;;;;;;;4993622;28;20439;-43
2023/01/04 14:17:58;;;;;;;4.20;3.60;;;;;;;;;;4989313;28;20491;-44
2023/01/04 14:20:35;;;;;;;7.03;3.72;;;;;;;;;;5000395;28;20029;-44
2023/01/04 14:23:01;;;;;;;3.50;2.97;;;;;;;;;;4991517;28;20041;-43
2023/01/04 14:25:32;;;;;;;4.82;3.22;;;;;;;;;;4995670;28;20026;-43
2023/01/04 14:28:19;;;;;;;5.35;3.60;;;;;;;;;;4993498;28;20378;-45
2023/01/04 14:30:47;;;;;;;4.47;3.90;;;;;;;;;;5010586;28;20117;-44
2023/01/04 14:33:16;;;;;;;4.68;3.88;;;;;;;;;;4996298;28;20368;-44
2023/01/04 14:35:42;;;;;;;4.70;3.95;;;;;;;;;;4998409;28;20026;-46
2023/01/04 14:38:17;;;;;;;8.60;4.00;;;;;;;;;;4994766;28;20041;-43
2023/01/04 14:40:43;;;;;;;8.13;3.70;;;;;;;;;;4996740;28;20339;-44
2023/01/04 14:43:35;;;;;;;4.13;3.72;;;;;;;;;;4996078;28;20048;-44
2023/01/04 14:46:00;;;;;;;3.30;3.00;;;;;;;;;;4992863;28;20431;-44
2023/01/04 14:48:28;;;;;;;3.97;3.58;;;;;;;;;;4994701;28;20037;-43
2023/01/04 14:50:53;;;;;;;7.68;4.30;;;;;;;;;;4997884;28;20038;-43
2023/01/04 14:53:20;;;;;;;10.55;3.88;;;;;;;;;;4993498;28;20042;-43
2023/01/04 14:55:45;;;;;;;5.50;4.25;;;;;;;;;;4994717;28;20049;-43
2023/01/04 14:58:11;;;;;;;5.53;4.32;;;;;;;;;;4988477;28;20083;-48
2023/01/04 15:00:36;;;;;;;4.53;4.10;;;;;;;;;;4991290;28;20054;-43
2023/01/04 15:03:02;;;;;;;7.65;4.18;;;;;;;;;;4996315;28;20033;-44
2023/01/04 15:05:27;;;;;;;4.50;4.10;;;;;;;;;;4992667;28;20023;-45
2023/01/04 15:07:52;;;;;;;4.53;4.10;;;;;;;;;;4995317;28;20042;-45
2023/01/04 15:10:22;;;;;;;7.53;5.85;;;;;;;;;;4995777;28;20581;-45
2023/01/04 15:12:47;;;;;;;8.05;5.38;;;;;;;;;;4993810;28;20053;-44
2023/01/04 15:15:13;;;;;;;7.60;6.15;;;;;;;;;;4998848;28;20026;-44
2023/01/04 15:17:38;;;;;;;7.45;6.22;;;;;;;;;;4993190;28;20042;-43
2023/01/04 15:20:04;;;;;;;8.65;5.35;;;;;;;;;;4992877;28;20057;-44
2023/01/04 15:22:30;;;;;;;8.38;5.18;;;;;;;;;;4995037;28;20507;-43
2023/01/04 15:24:55;;;;;;;8.73;5.43;;;;;;;;;;4994118;28;20413;-44
2023/01/04 15:27:21;;;;;;;10.77;6.72;;;;;;;;;;4993726;28;20049;-44
2023/01/04 15:29:46;;;;;;;6.05;5.47;;;;;;;;;;4992202;28;20541;-42
2023/01/04 15:32:11;;;;;;;5.85;5.18;;;;;;;;;;4988635;28;20043;-45